»·PEaware :: DAL5544 KBUR-KPSP

DAL5544 :: KBUR-KPSP

FLIGHT INFORMATION

Flight Status: Arrived
Operator:
Delta Air Lines
More flights by this operator :: More flights under this callsign
Pilot: Blake E. (25579)
Aircraft: BOEING 737-800
(B738)
More flights by this aircraft type
Origin: KBUR Bob Hope-Burbank
United States
Destination: KPSP Palm Springs Intl
United States
More flights between these airports :: More routes between these airports
Route: +VNY3 PMD V137 PSP
File this flight plan on PilotEdge
Remarks:
Altitude:
(Current/Filed)
17,000ft
Speed:
(Current/Filed)
320kts
Departed: 06-Apr-20 08:02 PM
Arrived: 06-Apr-20 08:37 PM
Distance/Time
Traveled:
95nm/0:35
Distance/Time
To Go:
Arrived

Flight Plot

Page will automatically refresh every two minutes.


Map Options




Map Legend


Flown Route
Filed Route
Departure Airport
Arrival Airport
Navaid (VOR, NDB)
Fix

Horizontal Profiles

Position Reports

Time Latitude Longitude Heading Altitude Ground
Speed
06-Apr-20 19:25 34.196842 -118.351952 179 788ft 0kts
06-Apr-20 19:26 34.196842 -118.351952 179 788ft 0kts
06-Apr-20 19:27 34.196842 -118.351952 179 788ft 0kts
06-Apr-20 19:28 34.196842 -118.351952 179 788ft 0kts
06-Apr-20 19:29 34.196842 -118.351952 179 788ft 0kts
06-Apr-20 19:30 34.196842 -118.351952 179 788ft 0kts
06-Apr-20 19:31 34.196842 -118.351952 179 788ft 0kts
06-Apr-20 19:32 34.196842 -118.351952 179 788ft 0kts
06-Apr-20 19:33 34.196842 -118.351952 179 788ft 0kts
06-Apr-20 19:34 34.196842 -118.351952 179 788ft 0kts
06-Apr-20 19:35 34.196842 -118.351952 179 788ft 0kts
06-Apr-20 19:36 34.196842 -118.351952 179 788ft 0kts
06-Apr-20 19:37 34.196842 -118.351952 179 788ft 0kts
06-Apr-20 19:38 34.196842 -118.351952 179 788ft 0kts
06-Apr-20 19:39 34.196842 -118.351952 179 788ft 0kts
06-Apr-20 19:40 34.196842 -118.351952 179 788ft 0kts
06-Apr-20 19:41 34.196842 -118.351952 179 788ft 0kts
06-Apr-20 19:42 34.196842 -118.351952 179 788ft 0kts
06-Apr-20 19:43 34.196842 -118.351952 179 788ft 0kts
06-Apr-20 19:44 34.196842 -118.351952 179 788ft 0kts
06-Apr-20 19:45 34.196842 -118.351952 179 788ft 0kts
06-Apr-20 19:46 34.196843 -118.351952 179 788ft 0kts
06-Apr-20 19:47 34.197171 -118.351827 254 788ft 2kts
06-Apr-20 19:48 34.197177 -118.351682 271 788ft 0kts
06-Apr-20 19:49 34.197177 -118.351682 271 788ft 0kts
06-Apr-20 19:50 34.197177 -118.351682 271 788ft 0kts
06-Apr-20 19:51 34.197177 -118.351682 271 788ft 0kts
06-Apr-20 19:52 34.197177 -118.351682 271 788ft 0kts
06-Apr-20 19:53 34.197250 -118.353932 291 788ft 20kts
06-Apr-20 19:54 34.201482 -118.356101 347 788ft 15kts
06-Apr-20 19:55 34.207773 -118.357851 345 788ft 28kts
06-Apr-20 19:56 34.210829 -118.357984 317 788ft 0kts
06-Apr-20 19:57 34.210829 -118.357984 317 788ft 0kts
06-Apr-20 19:58 34.210889 -118.358056 314 788ft 7kts
06-Apr-20 19:59 34.211468 -118.358896 308 788ft 0kts
06-Apr-20 20:00 34.211282 -118.360193 166 787ft 17kts
06-Apr-20 20:01 34.178009 -118.357639 198 2449ft 151kts
06-Apr-20 20:02 34.148093 -118.397239 281 3936ft 190kts
06-Apr-20 20:03 34.202573 -118.448403 307 3989ft 267kts
06-Apr-20 20:04 34.227489 -118.528912 262 4531ft 267kts
06-Apr-20 20:05 34.270387 -118.598477 338 8279ft 303kts
06-Apr-20 20:06 34.341671 -118.550800 64 10776ft 345kts
06-Apr-20 20:07 34.395385 -118.440994 56 12645ft 402kts
06-Apr-20 20:08 34.463917 -118.331842 56 13009ft 405kts
06-Apr-20 20:09 34.533519 -118.220867 56 15190ft 423kts
06-Apr-20 20:10 34.597722 -118.099245 80 16982ft 433kts
06-Apr-20 20:11 34.581173 -117.959107 122 16990ft 420kts
06-Apr-20 20:12 34.526155 -117.833930 125 16986ft 420kts
06-Apr-20 20:13 34.470253 -117.711463 125 17009ft 416kts
06-Apr-20 20:14 34.413861 -117.589044 125 17018ft 415kts
06-Apr-20 20:15 34.358457 -117.468901 126 17012ft 380kts
06-Apr-20 20:16 34.308830 -117.362167 126 17019ft 364kts
06-Apr-20 20:17 34.260336 -117.257545 127 17401ft 327kts
06-Apr-20 20:18 34.211511 -117.153394 127 17013ft 363kts
06-Apr-20 20:19 34.161895 -117.047233 127 17022ft 363kts
06-Apr-20 20:20 34.112698 -116.942137 126 15478ft 355kts
06-Apr-20 20:21 34.064973 -116.840581 125 14040ft 345kts
06-Apr-20 20:22 34.017182 -116.739396 125 13358ft 345kts
06-Apr-20 20:23 33.970114 -116.640130 125 11112ft 338kts
06-Apr-20 20:24 33.927245 -116.549651 126 10960ft 281kts
06-Apr-20 20:25 33.889070 -116.469616 126 10751ft 280kts
06-Apr-20 20:26 33.849026 -116.380764 120 7963ft 305kts
06-Apr-20 20:27 33.812675 -116.294211 120 6815ft 267kts
06-Apr-20 20:28 33.773461 -116.228892 173 6513ft 235kts
06-Apr-20 20:29 33.712397 -116.237148 209 6029ft 212kts
06-Apr-20 20:30 33.672836 -116.284532 249 5182ft 199kts
06-Apr-20 20:31 33.669464 -116.348274 289 4363ft 194kts
06-Apr-20 20:32 33.706080 -116.393945 322 3342ft 193kts
06-Apr-20 20:33 33.748582 -116.432953 321 2175ft 192kts
06-Apr-20 20:34 33.784719 -116.466763 317 1218ft 144kts
06-Apr-20 20:35 33.816280 -116.495738 324 510ft 136kts
06-Apr-20 20:36 33.828671 -116.508107 232 431ft 0kts
06-Apr-20 20:37 33.825003 -116.505550 144 421ft 24kts
06-Apr-20 20:38 33.822254 -116.505550 234 415ft 7kts
06-Apr-20 20:39 33.822540 -116.506228 325 416ft 0kts
06-Apr-20 20:40 33.822540 -116.506228 325 416ft 0kts
06-Apr-20 20:41 33.822540 -116.506228 325 416ft 0kts
06-Apr-20 20:42 33.822540 -116.506228 325 416ft 0kts
06-Apr-20 20:43 33.822540 -116.506228 325 416ft 0kts
06-Apr-20 20:44 33.822540 -116.506228 325 416ft 0kts

Navigation Log

Ident Type
Flight plan parsing failed, navigation log unavailable